Terminal Aerodrome Forecast
Issued by NWS Shreveport, LA

Home | Current Version | Previous Version | Text Only | Print | Product List | Glossary On
Versions: 1 2 3 4 5 6 7 8 9 10 11 12 13 14 15 16 17 18 19
000
FTUS44 KSHV 291700 RRA
TAFTXK
TAF
KTXK 291748Z 2918/3018 18007KT P6SM VCSH SCT040 SCT100 BKN130
      TEMPO 2918/2921 3SM TSRA BR BKN035CB
     FM292100 18007KT P6SM VCTS SCT040CB BKN110
     FM300500 17004KT P6SM SCT045 SCT120 BKN250
     FM301500 17005KT P6SM SCT023 SCT150 BKN250=

USA.gov is the U.S. government's official web portal to all federal, state and local government web resources and services.